createdAt,value
2023-10-28T00:02:26.974Z,2.00
2023-10-28T00:07:29.825Z,4.60
2023-10-28T00:12:32.627Z,3.00
2023-10-28T00:17:37.756Z,2.40
2023-10-28T00:22:41.194Z,3.00
2023-10-28T00:27:44.243Z,3.80
2023-10-28T00:32:48.448Z,2.00
2023-10-28T00:37:51.454Z,3.00
2023-10-28T00:42:54.295Z,2.40
2023-10-28T00:47:58.883Z,2.00
2023-10-28T00:53:03.262Z,2.80
2023-10-28T00:58:07.418Z,2.20
2023-10-28T01:03:11.703Z,2.00
2023-10-28T01:08:14.683Z,2.80
2023-10-28T01:13:17.563Z,3.20
2023-10-28T01:18:21.889Z,3.60
2023-10-28T01:23:26.250Z,3.80
2023-10-28T01:28:29.061Z,2.00
2023-10-28T01:33:32.058Z,1.40
2023-10-28T01:38:37.545Z,3.20
2023-10-28T01:43:41.230Z,2.00
2023-10-28T01:48:44.375Z,2.00
2023-10-28T01:53:48.641Z,2.00
2023-10-28T01:58:51.578Z,1.80
2023-10-28T02:03:55.984Z,2.00
2023-10-28T02:09:00.162Z,2.00
2023-10-28T02:14:03.512Z,2.00
2023-10-28T02:19:06.502Z,2.00
2023-10-28T02:24:11.040Z,2.00
2023-10-28T02:29:13.973Z,2.40
2023-10-28T02:34:16.974Z,1.60
2023-10-28T02:39:21.130Z,3.60
2023-10-28T02:44:23.973Z,2.00
2023-10-28T02:49:26.837Z,1.20
2023-10-28T02:54:31.229Z,1.00
2023-10-28T02:59:34.178Z,1.80
2023-10-28T03:04:37.013Z,1.40
2023-10-28T03:09:41.632Z,2.00
2023-10-28T03:14:44.609Z,4.60
2023-10-28T03:19:47.654Z,1.60
2023-10-28T03:24:52.112Z,2.00
2023-10-28T03:29:54.957Z,1.00
2023-10-28T03:34:57.868Z,1.00
2023-10-28T03:40:02.196Z,1.20
2023-10-28T03:45:05.405Z,1.20
2023-10-28T03:50:08.774Z,1.00
2023-10-28T03:55:13.419Z,1.80
2023-10-28T04:00:17.632Z,1.40
2023-10-28T04:05:20.544Z,2.00
2023-10-28T04:10:25.414Z,3.60
2023-10-28T04:15:28.297Z,1.00
2023-10-28T04:20:31.204Z,1.80
2023-10-28T04:25:35.565Z,2.00
2023-10-28T04:30:38.433Z,1.00
2023-10-28T04:35:44.279Z,1.00
2023-10-28T04:40:48.506Z,1.00
2023-10-28T04:45:52.465Z,1.00
2023-10-28T04:50:55.593Z,1.00
2023-10-28T04:55:59.812Z,1.00
2023-10-28T05:01:02.907Z,1.00
2023-10-28T05:06:06.361Z,1.00
2023-10-28T05:11:14.633Z,1.60
2023-10-28T05:16:17.973Z,1.40
2023-10-28T05:21:20.895Z,1.00
2023-10-28T05:26:25.450Z,1.20
2023-10-28T05:31:28.464Z,1.00
2023-10-28T05:36:31.374Z,2.00
2023-10-28T05:41:35.827Z,1.00
2023-10-28T05:46:38.808Z,1.00
2023-10-28T05:51:42.950Z,1.00
2023-10-28T05:56:47.120Z,1.00
2023-10-28T06:01:50.498Z,1.00
2023-10-28T06:06:53.569Z,1.00
2023-10-28T06:11:58.196Z,1.20
2023-10-28T06:17:01.154Z,1.00
2023-10-28T06:22:04.469Z,1.00
2023-10-28T06:27:09.735Z,1.00
2023-10-28T06:32:12.807Z,2.00
2023-10-28T06:37:15.884Z,1.00
2023-10-28T06:42:20.391Z,1.00
2023-10-28T06:47:23.444Z,1.00
2023-10-28T06:52:26.848Z,2.00
2023-10-28T06:57:31.691Z,1.00
2023-10-28T07:02:34.854Z,1.60
2023-10-28T07:07:37.991Z,12.40
2023-10-28T07:12:42.329Z,10.60
2023-10-28T07:17:45.633Z,4.60
2023-10-28T07:22:48.686Z,4.40
2023-10-28T07:27:53.333Z,3.60
2023-10-28T07:32:57.434Z,4.00
2023-10-28T07:38:02.033Z,4.00
2023-10-28T07:43:06.577Z,2.80
2023-10-28T07:48:10.252Z,5.00
2023-10-28T07:53:14.118Z,2.00
2023-10-28T07:58:18.612Z,4.20
2023-10-28T08:03:21.710Z,2.00
2023-10-28T08:08:24.811Z,4.00
2023-10-28T08:13:29.267Z,2.00
2023-10-28T08:18:33.966Z,2.00
2023-10-28T08:23:40.018Z,2.00
2023-10-28T08:28:44.477Z,2.00
2023-10-28T08:33:51.374Z,2.00
2023-10-28T08:38:54.672Z,1.40
2023-10-28T08:43:59.108Z,1.80
2023-10-28T08:49:02.175Z,1.20
2023-10-28T08:54:05.956Z,1.20
2023-10-28T08:59:10.305Z,2.00
2023-10-28T09:04:13.076Z,1.00
2023-10-28T09:09:18.989Z,4.00
2023-10-28T09:14:23.225Z,4.00
2023-10-28T09:19:26.158Z,2.00
2023-10-28T09:24:29.171Z,1.00
2023-10-28T09:29:34.925Z,1.00
2023-10-28T09:34:39.195Z,2.00
2023-10-28T09:39:47.706Z,2.00
2023-10-28T09:44:53.278Z,2.80
2023-10-28T09:49:58.597Z,1.40
2023-10-28T09:55:07.195Z,1.00
2023-10-28T10:00:18.986Z,2.00
2023-10-28T10:05:25.488Z,1.40
2023-10-28T10:10:28.618Z,2.00
2023-10-28T10:15:34.405Z,1.00
2023-10-28T10:20:38.032Z,2.00
2023-10-28T10:25:44.915Z,2.40
2023-10-28T10:30:49.096Z,4.00
2023-10-28T10:35:51.943Z,18.00
2023-10-28T10:40:56.803Z,34.80
2023-10-28T10:46:01.224Z,53.00
2023-10-28T10:51:04.492Z,64.67
2023-10-28T10:56:08.159Z,65.67
2023-10-28T11:01:13.821Z,65.67
2023-10-28T11:06:16.679Z,72.67
2023-10-28T11:11:20.199Z,68.00
2023-10-28T11:16:25.516Z,73.33
2023-10-28T11:21:29.871Z,68.67
2023-10-28T11:26:33.133Z,68.33
2023-10-28T11:31:41.087Z,61.00
2023-10-28T11:36:44.021Z,59.75
2023-10-28T11:41:48.539Z,53.00
2023-10-28T11:46:53.248Z,50.25
2023-10-28T11:51:56.185Z,46.50
2023-10-28T11:56:58.958Z,44.75
2023-10-28T12:02:03.471Z,37.60
2023-10-28T12:07:06.728Z,35.00
2023-10-28T12:12:10.416Z,32.40
2023-10-28T12:17:14.720Z,33.40
2023-10-28T12:22:17.934Z,28.40
2023-10-28T12:27:21.215Z,28.40
2023-10-28T12:32:25.932Z,28.00
2023-10-28T12:37:28.911Z,22.60
2023-10-28T12:42:32.586Z,25.60
2023-10-28T12:47:37.238Z,21.40
2023-10-28T12:52:40.422Z,16.60
2023-10-28T12:57:43.284Z,17.80
2023-10-28T13:02:49.716Z,15.40
2023-10-28T13:07:53.223Z,17.80
2023-10-28T13:12:56.295Z,14.60
2023-10-28T13:18:00.699Z,13.80
2023-10-28T13:23:03.666Z,13.60
2023-10-28T13:28:06.940Z,12.80
2023-10-28T13:33:13.792Z,13.20
2023-10-28T13:38:17.697Z,11.20
2023-10-28T13:43:20.671Z,8.80
2023-10-28T13:48:26.540Z,10.00
2023-10-28T13:53:29.694Z,9.40
2023-10-28T13:58:32.591Z,8.00
2023-10-28T14:03:36.929Z,9.20
2023-10-28T14:08:40.316Z,6.00
2023-10-28T14:13:43.177Z,5.80
2023-10-28T14:18:50.453Z,2.80
2023-10-28T14:23:53.569Z,2.00
2023-10-28T14:28:56.730Z,1.20
2023-10-28T14:34:01.278Z,2.80
2023-10-28T14:39:05.169Z,4.00
2023-10-28T14:44:10.018Z,2.60
2023-10-28T14:49:14.511Z,4.00
2023-10-28T14:54:17.451Z,4.00
2023-10-28T14:59:20.374Z,1.80
2023-10-28T15:04:24.825Z,2.00
2023-10-28T15:09:27.923Z,4.40
2023-10-28T15:14:30.982Z,4.00
2023-10-28T15:19:35.364Z,2.00
2023-10-28T15:24:38.287Z,2.00
2023-10-28T15:29:41.782Z,2.00
2023-10-28T15:34:48.809Z,2.00
2023-10-28T15:39:51.802Z,2.00
2023-10-28T15:44:55.255Z,3.20
2023-10-28T15:49:59.505Z,1.80
2023-10-28T15:55:03.286Z,1.20
2023-10-28T16:00:10.232Z,1.00
2023-10-28T16:05:14.453Z,1.60
2023-10-28T16:10:17.355Z,1.60
2023-10-28T16:15:21.509Z,4.00
2023-10-28T16:20:26.775Z,1.60
2023-10-28T16:25:30.126Z,2.00
2023-10-28T16:30:33.543Z,1.00
2023-10-28T16:35:37.816Z,2.00
2023-10-28T16:40:42.318Z,1.60
2023-10-28T16:45:45.143Z,2.00
2023-10-28T16:50:49.396Z,2.40
2023-10-28T16:56:01.148Z,2.00
2023-10-28T17:01:04.882Z,2.00
2023-10-28T17:06:09.514Z,2.80
2023-10-28T17:11:12.418Z,2.00
2023-10-28T17:16:15.747Z,2.00
2023-10-28T17:21:20.575Z,2.00
2023-10-28T17:26:23.950Z,2.00
2023-10-28T17:31:28.317Z,1.80
2023-10-28T17:36:32.901Z,2.00
2023-10-28T17:41:35.946Z,1.00
2023-10-28T17:46:38.882Z,2.00
2023-10-28T17:51:43.127Z,3.60
2023-10-28T17:56:46.283Z,1.40
2023-10-28T18:01:49.439Z,1.20
2023-10-28T18:06:54.388Z,1.00
2023-10-28T18:11:57.250Z,2.00
2023-10-28T18:17:00.359Z,3.60
2023-10-28T18:22:04.648Z,1.60
2023-10-28T18:27:07.589Z,2.00
2023-10-28T18:32:13.353Z,1.00
2023-10-28T18:37:17.623Z,1.00
2023-10-28T18:42:21.544Z,2.00
2023-10-28T18:47:26.855Z,2.20
2023-10-28T18:52:32.266Z,2.00
2023-10-28T18:57:35.086Z,1.00
2023-10-28T19:02:38.885Z,1.80
2023-10-28T19:07:43.325Z,1.60
2023-10-28T19:12:46.995Z,3.00
2023-10-28T19:17:49.854Z,2.00
2023-10-28T19:22:54.543Z,2.00
2023-10-28T19:27:57.395Z,2.00
2023-10-28T19:33:01.078Z,1.00
2023-10-28T19:38:05.868Z,1.60
2023-10-28T19:43:08.703Z,1.00
2023-10-28T19:48:11.586Z,2.00
2023-10-28T19:53:15.966Z,2.80
2023-10-28T19:58:19.367Z,2.00
2023-10-28T20:03:22.324Z,2.00
2023-10-28T20:08:26.915Z,1.00
2023-10-28T20:13:29.826Z,1.00
2023-10-28T20:18:32.757Z,1.80
2023-10-28T20:23:37.201Z,2.40
2023-10-28T20:28:41.917Z,1.40
2023-10-28T20:33:45.093Z,1.00
2023-10-28T20:38:49.513Z,2.60
2023-10-28T20:43:52.631Z,2.00
2023-10-28T20:48:56.544Z,1.00
2023-10-28T20:54:00.922Z,2.00
2023-10-28T20:59:03.966Z,0.80
2023-10-28T21:04:07.139Z,1.60
2023-10-28T21:09:11.821Z,1.80
2023-10-28T21:14:14.819Z,2.40
2023-10-28T21:19:17.737Z,1.00
2023-10-28T21:24:22.228Z,1.00
2023-10-28T21:29:26.756Z,1.40
2023-10-28T21:34:29.709Z,1.00
2023-10-28T21:39:35.031Z,1.00
2023-10-28T21:44:37.824Z,1.20
2023-10-28T21:49:40.721Z,1.00
2023-10-28T21:54:45.130Z,2.00
2023-10-28T21:59:48.049Z,0.60
2023-10-28T22:04:51.214Z,1.40
2023-10-28T22:09:57.081Z,1.20
2023-10-28T22:15:00.055Z,2.00
2023-10-28T22:20:03.134Z,1.80
2023-10-28T22:25:08.264Z,1.00
2023-10-28T22:30:12.454Z,1.00
2023-10-28T22:35:15.343Z,1.00
2023-10-28T22:40:19.780Z,1.00
2023-10-28T22:45:25.666Z,1.00
2023-10-28T22:50:29.485Z,1.00
2023-10-28T22:55:33.774Z,1.00
2023-10-28T23:00:36.700Z,1.00
2023-10-28T23:05:40.314Z,1.00
2023-10-28T23:10:44.794Z,1.40
2023-10-28T23:15:48.425Z,1.00
2023-10-28T23:20:52.060Z,1.00
2023-10-28T23:25:56.339Z,1.60
2023-10-28T23:30:59.154Z,2.00
2023-10-28T23:36:02.142Z,1.00
2023-10-28T23:41:06.422Z,0.00
2023-10-28T23:46:09.971Z,1.40
2023-10-28T23:51:12.806Z,1.00
2023-10-28T23:56:16.994Z,0.80
